Time;durP1;ratioP1;P1;durP2;ratioP2;P2;SDS_P1;SDS_P2;PMS_P1;PMS_P2;Temp;Humidity;BMP_temperature;BMP_pressure;BME280_temperature;BME280_humidity;BME280_pressure;Samples;Min_cycle;Max_cycle;Signal;HPM_P1;HPM_P2
2022/09/30 00:02:08;;;;;;;;;;;;;;;14.49;100.00;98108.41;5052319;28;20330;-44
2022/09/30 00:04:34;;;;;;;;;;;;;;;14.34;100.00;98115.34;5052873;28;20027;-44
2022/09/30 00:06:59;;;;;;;;;;;;;;;14.02;100.00;98115.53;5054049;28;20358;-44
2022/09/30 00:09:24;;;;;;;;;;;;;;;14.30;100.00;98108.69;5050653;28;19971;-44
2022/09/30 00:11:50;;;;;;;;;;;;;;;14.17;100.00;98112.03;5053214;28;19920;-44
2022/09/30 00:14:16;;;;;;;;;;;;;;;14.01;100.00;98121.66;5052315;28;19920;-44
2022/09/30 00:16:42;;;;;;;;;;;;;;;13.88;100.00;98118.13;5052943;28;20285;-44
2022/09/30 00:19:07;;;;;;;;;;;;;;;13.75;100.00;98126.66;5052560;28;19924;-44
2022/09/30 00:21:33;;;;;;;;;;;;;;;13.80;100.00;98127.19;5034369;28;19986;-44
2022/09/30 00:23:58;;;;;;;;;;;;;;;13.96;100.00;98132.28;5053619;28;19932;-44
2022/09/30 00:26:23;;;;;;;;;;;;;;;14.00;100.00;98122.56;5052111;28;20035;-44
2022/09/30 00:28:50;;;;;;;;;;;;;;;13.71;100.00;98126.91;5026557;28;20661;-45
2022/09/30 00:31:15;;;;;;;;;;;;;;;13.20;100.00;98134.94;5052949;28;19966;-44
2022/09/30 00:33:41;;;;;;;;;;;;;;;13.90;100.00;98132.66;5052545;28;19920;-44
2022/09/30 00:36:06;;;;;;;;;;;;;;;14.09;100.00;98119.44;5053320;28;19920;-45
2022/09/30 00:38:31;;;;;;;;;;;;;;;14.46;100.00;98112.00;5051182;28;19955;-44
2022/09/30 00:40:58;;;;;;;;;;;;;;;14.42;100.00;98110.53;5052363;28;19927;-44
2022/09/30 00:43:44;;;;;;;;;;;;;;;14.48;100.00;98117.91;5051484;28;20713;-44
2022/09/30 00:46:35;;;;;;;;;;;;;;;14.39;100.00;98119.34;5051058;28;19917;-44
2022/09/30 00:49:05;;;;;;;;;;;;;;;14.35;100.00;98133.41;5046776;28;19913;-44
2022/09/30 00:51:32;;;;;;;;;;;;;;;14.41;100.00;98124.41;5052845;28;19916;-44
2022/09/30 00:53:58;;;;;;;;;;;;;;;14.29;100.00;98138.13;5025192;28;19920;-44
2022/09/30 00:56:25;;;;;;;;;;;;;;;14.46;100.00;98127.56;5033002;28;20035;-44
2022/09/30 00:59:05;;;;;;;;;;;;;;;14.37;100.00;98134.13;5051406;28;19921;-44
2022/09/30 01:01:30;;;;;;;;;;;;;;;14.39;100.00;98134.88;5033536;28;19917;-44
2022/09/30 01:04:02;;;;;;;;;;;;;;;14.33;100.00;98134.41;5051691;28;19970;-45
2022/09/30 01:06:28;;;;;;;;;;;;;;;14.13;100.00;98138.22;5052317;28;19948;-45
2022/09/30 01:08:54;;;;;;;;;;;;;;;14.27;100.00;98139.97;5051936;28;20396;-44
2022/09/30 01:11:19;;;;;;;;;;;;;;;14.22;100.00;98138.47;5052204;28;20255;-45
2022/09/30 01:13:45;;;;;;;;;;;;;;;14.06;100.00;98142.91;5032609;28;19920;-44
2022/09/30 01:16:23;;;;;;;;;;;;;;;14.10;100.00;98139.22;5052023;28;19916;-44
2022/09/30 01:18:57;;;;;;;;;;;;;;;14.13;100.00;98135.63;5051080;28;19924;-44
2022/09/30 01:21:22;;;;;;;;;;;;;;;14.23;100.00;98134.97;5050896;28;20411;-44
2022/09/30 01:23:57;;;;;;;;;;;;;;;14.10;100.00;98136.63;5052429;28;19928;-44
2022/09/30 01:26:25;;;;;;;;;;;;;;;14.03;100.00;98132.75;5049465;28;19921;-44
2022/09/30 01:29:13;;;;;;;;;;;;;;;14.05;100.00;98130.91;5051119;28;20484;-44
2022/09/30 01:31:42;;;;;;;;;;;;;;;13.84;100.00;98139.94;5033601;28;20397;-44
2022/09/30 01:34:20;;;;;;;;;;;;;;;14.01;100.00;98139.78;5051155;28;19917;-44
2022/09/30 01:37:00;;;;;;;;;;;;;;;14.00;100.00;98143.28;5050783;28;19921;-44
2022/09/30 01:39:32;;;;;;;;;;;;;;;13.96;100.00;98136.66;5049394;28;20436;-44
2022/09/30 01:42:13;;;;;;;;;;;;;;;13.89;100.00;98141.34;5031675;28;20526;-44
2022/09/30 01:45:02;;;;;;;;;;;;;;;13.79;100.00;98141.03;5050464;28;20008;-44
2022/09/30 01:47:31;;;;;;;;;;;;;;;14.00;100.00;98132.94;5041270;28;19924;-45
2022/09/30 01:50:29;;;;;;;;;;;;;;;13.83;100.00;98135.69;5032482;28;19931;-45
2022/09/30 01:53:01;;;;;;;;;;;;;;;13.88;100.00;98134.50;5009018;28;19936;-44
2022/09/30 01:55:28;;;;;;;;;;;;;;;13.90;100.00;98139.59;5032788;28;19928;-44
2022/09/30 01:57:57;;;;;;;;;;;;;;;13.77;100.00;98148.06;5049838;28;19931;-44
2022/09/30 02:00:23;;;;;;;;;;;;;;;13.80;100.00;98147.91;5051427;28;20812;-45
2022/09/30 02:02:51;;;;;;;;;;;;;;;13.47;100.00;98157.59;5033200;28;19994;-44
2022/09/30 02:05:18;;;;;;;;;;;;;;;13.74;100.00;98161.19;5050054;28;19920;-45
2022/09/30 02:07:48;;;;;;;;;;;;;;;13.67;100.00;98156.47;5032081;28;19920;-46
2022/09/30 02:10:34;;;;;;;;;;;;;;;13.54;100.00;98156.34;5031003;28;19920;-44
2022/09/30 02:13:10;;;;;;;;;;;;;;;13.70;100.00;98158.88;5050106;28;19927;-44
2022/09/30 02:15:37;;;;;;;;;;;;;;;13.48;100.00;98161.84;5023458;28;20388;-44
2022/09/30 02:18:03;;;;;;;;;;;;;;;13.51;100.00;98161.69;5050549;28;19934;-43
2022/09/30 02:20:30;;;;;;;;;;;;;;;13.48;100.00;98162.72;5049570;28;19921;-44
2022/09/30 02:23:14;;;;;;;;;;;;;;;13.63;100.00;98163.56;5031346;28;19925;-44
2022/09/30 02:26:06;;;;;;;;;;;;;;;13.68;100.00;98160.72;5050767;28;20407;-44
2022/09/30 02:28:32;;;;;;;;;;;;;;;13.60;100.00;98166.34;5044676;28;19968;-43
2022/09/30 02:30:58;;;;;;;;;;;;;;;13.50;100.00;98170.34;5032411;28;20374;-43
2022/09/30 02:33:26;;;;;;;;;;;;;;;13.43;100.00;98169.03;5031627;28;19940;-44
2022/09/30 02:35:53;;;;;;;;;;;;;;;13.30;100.00;98162.00;5030436;28;20561;-44
2022/09/30 02:38:18;;;;;;;;;;;;;;;13.44;100.00;98165.56;5048829;28;20020;-44
2022/09/30 02:40:47;;;;;;;;;;;;;;;13.29;100.00;98168.06;5031798;28;19927;-43
2022/09/30 02:43:12;;;;;;;;;;;;;;;13.41;100.00;98165.72;5031994;28;20025;-44
2022/09/30 02:45:41;;;;;;;;;;;;;;;13.51;100.00;98167.69;5031901;28;20377;-44
2022/09/30 02:48:24;;;;;;;;;;;;;;;13.49;100.00;98168.72;5030967;28;19920;-44
2022/09/30 02:51:02;;;;;;;;;;;;;;;13.33;100.00;98163.56;5031025;28;19946;-44
2022/09/30 02:53:39;;;;;;;;;;;;;;;13.54;100.00;98161.50;5038170;28;19966;-43
2022/09/30 02:56:23;;;;;;;;;;;;;;;13.24;100.00;98158.88;5049831;28;19924;-44
2022/09/30 02:58:48;;;;;;;;;;;;;;;13.03;100.00;98166.09;5049600;28;20309;-44
2022/09/30 03:01:14;;;;;;;;;;;;;;;13.21;100.00;98157.31;5050042;28;20015;-44
2022/09/30 03:03:41;;;;;;;;;;;;;;;13.27;100.00;98158.72;5031526;28;19963;-43
2022/09/30 03:06:06;;;;;;;;;;;;;;;13.23;100.00;98155.47;5030924;28;19920;-44
2022/09/30 03:08:31;;;;;;;;;;;;;;;12.92;100.00;98164.94;5050762;28;19923;-44
2022/09/30 03:10:56;;;;;;;;;;;;;;;12.69;100.00;98173.09;5049626;28;19920;-44
2022/09/30 03:13:34;;;;;;;;;;;;;;;12.76;100.00;98159.75;5050988;28;19927;-44
2022/09/30 03:16:18;;;;;;;;;;;;;;;12.96;100.00;98163.84;5031885;28;19924;-43
2022/09/30 03:18:58;;;;;;;;;;;;;;;13.00;100.00;98166.25;5051970;28;19924;-43
2022/09/30 03:21:33;;;;;;;;;;;;;;;13.11;100.00;98169.06;5053485;28;19969;-43
2022/09/30 03:24:21;;;;;;;;;;;;;;;12.98;100.00;98169.75;5054704;28;19921;-43
2022/09/30 03:26:55;;;;;;;;;;;;;;;12.91;100.00;98173.59;5054715;28;19916;-44
2022/09/30 03:29:20;;;;;;;;;;;;;;;13.08;100.00;98174.41;5052958;28;19943;-43
2022/09/30 03:32:04;;;;;;;;;;;;;;;13.22;100.00;98171.91;5054254;28;20375;-43
2022/09/30 03:34:42;;;;;;;;;;;;;;;13.25;100.00;98173.47;5053170;28;20491;-43
2022/09/30 03:37:16;;;;;;;;;;;;;;;13.29;100.00;98178.41;5035169;28;20484;-43
2022/09/30 03:39:49;;;;;;;;;;;;;;;13.31;100.00;98175.75;5052711;28;19916;-43
2022/09/30 03:42:18;;;;;;;;;;;;;;;13.22;100.00;98176.25;5054276;28;20385;-43
2022/09/30 03:44:44;;;;;;;;;;;;;;;13.07;100.00;98176.19;5034435;28;20012;-43
2022/09/30 03:47:10;;;;;;;;;;;;;;;13.10;100.00;98177.75;5034701;28;20518;-43
2022/09/30 03:49:36;;;;;;;;;;;;;;;13.16;100.00;98180.00;5033849;28;20015;-44
2022/09/30 03:52:05;;;;;;;;;;;;;;;13.03;100.00;98187.59;5034824;28;20442;-43
2022/09/30 03:54:32;;;;;;;;;;;;;;;13.00;100.00;98186.94;5034344;28;19928;-43
2022/09/30 03:56:57;;;;;;;;;;;;;;;13.00;100.00;98192.94;5053113;28;20448;-43
2022/09/30 03:59:24;;;;;;;;;;;;;;;13.03;100.00;98194.53;5033886;28;19936;-43
2022/09/30 04:01:49;;;;;;;;;;;;;;;13.15;100.00;98186.09;5034968;28;20029;-43
2022/09/30 04:04:15;;;;;;;;;;;;;;;13.03;100.00;98191.94;5051535;28;19924;-43
2022/09/30 04:06:40;;;;;;;;;;;;;;;13.06;100.00;98202.94;5054137;28;20027;-43
2022/09/30 04:09:05;;;;;;;;;;;;;;;13.00;100.00;98199.84;5053051;28;19974;-43
2022/09/30 04:11:30;;;;;;;;;;;;;;;13.00;100.00;98203.28;5051705;28;20513;-43
2022/09/30 04:13:55;;;;;;;;;;;;;;;12.86;100.00;98204.00;5053055;28;20289;-43
2022/09/30 04:16:21;;;;;;;;;;;;;;;12.61;100.00;98222.56;5051896;28;20560;-43
2022/09/30 04:18:46;;;;;;;;;;;;;;;12.81;100.00;98215.53;5053079;28;20936;-43
2022/09/30 04:21:12;;;;;;;;;;;;;;;12.67;100.00;98216.25;5051743;28;19916;-43
2022/09/30 04:23:38;;;;;;;;;;;;;;;12.77;100.00;98217.41;5035098;28;19961;-43
2022/09/30 04:26:04;;;;;;;;;;;;;;;12.72;100.00;98217.66;5051787;28;20942;-43
2022/09/30 04:28:30;;;;;;;;;;;;;;;12.59;100.00;98219.25;5049907;28;20411;-43
2022/09/30 04:30:58;;;;;;;;;;;;;;;12.29;100.00;98225.13;5052238;28;19920;-43
2022/09/30 04:33:23;;;;;;;;;;;;;;;12.61;100.00;98232.06;5052592;28;19979;-43
2022/09/30 04:35:51;;;;;;;;;;;;;;;12.69;100.00;98235.09;5053717;28;19924;-44
2022/09/30 04:38:17;;;;;;;;;;;;;;;12.54;100.00;98237.59;5052471;28;19920;-43
2022/09/30 04:40:42;;;;;;;;;;;;;;;12.45;100.00;98238.06;5053079;28;19928;-43
2022/09/30 04:43:08;;;;;;;;;;;;;;;12.18;100.00;98244.63;5053020;28;20372;-43
2022/09/30 04:45:33;;;;;;;;;;;;;;;12.20;100.00;98253.97;5052419;28;20449;-43
2022/09/30 04:47:58;;;;;;;;;;;;;;;12.33;100.00;98260.16;5052369;28;19916;-43
2022/09/30 04:50:23;;;;;;;;;;;;;;;12.23;100.00;98258.16;5050422;28;19920;-43
2022/09/30 04:52:49;;;;;;;;;;;;;;;12.37;100.00;98266.00;5052762;28;19917;-43
2022/09/30 04:55:14;;;;;;;;;;;;;;;12.45;100.00;98266.47;5052725;28;19921;-43
2022/09/30 04:57:42;;;;;;;;;;;;;;;12.23;100.00;98264.13;5051662;28;20605;-44
2022/09/30 05:00:08;;;;;;;;;;;;;;;12.73;100.00;98267.63;5050266;28;19951;-43
2022/09/30 05:02:33;;;;;;;;;;;;;;;12.63;100.00;98267.25;5052068;28;20396;-43
2022/09/30 05:04:59;;;;;;;;;;;;;;;12.59;100.00;98270.06;5051991;28;19921;-43
2022/09/30 05:07:25;;;;;;;;;;;;;;;12.49;100.00;98273.13;5051044;28;19927;-44
2022/09/30 05:09:52;;;;;;;;;;;;;;;12.65;100.00;98269.75;5049226;28;19921;-43
2022/09/30 05:12:17;;;;;;;;;;;;;;;12.16;100.00;98277.41;5050732;28;19928;-43
2022/09/30 05:14:42;;;;;;;;;;;;;;;12.51;100.00;98262.72;5051622;28;20310;-43
2022/09/30 05:17:07;;;;;;;;;;;;;;;12.58;100.00;98268.41;5034604;28;19927;-43
2022/09/30 05:19:32;;;;;;;;;;;;;;;12.40;100.00;98276.19;5051059;28;19928;-43
2022/09/30 05:21:58;;;;;;;;;;;;;;;12.30;100.00;98285.31;5050790;28;19931;-43
2022/09/30 05:24:23;;;;;;;;;;;;;;;12.37;100.00;98285.84;5051394;28;20005;-43
2022/09/30 05:26:48;;;;;;;;;;;;;;;12.47;100.00;98295.59;5025199;28;20434;-43
2022/09/30 05:29:13;;;;;;;;;;;;;;;12.64;100.00;98289.59;5051924;28;20045;-43
2022/09/30 05:31:41;;;;;;;;;;;;;;;12.59;100.00;98290.72;5051894;28;19924;-43
2022/09/30 05:34:06;;;;;;;;;;;;;;;12.45;100.00;98292.28;5048659;28;19959;-43
2022/09/30 05:36:32;;;;;;;;;;;;;;;12.10;100.00;98304.38;5049898;28;19939;-43
2022/09/30 05:38:57;;;;;;;;;;;;;;;12.36;100.00;98300.47;5049912;28;19917;-43
2022/09/30 05:41:23;;;;;;;;;;;;;;;12.28;100.00;98287.13;5050979;28;19925;-43
2022/09/30 05:43:48;;;;;;;;;;;;;;;12.51;100.00;98289.38;5044924;28;19978;-43
2022/09/30 05:46:17;;;;;;;;;;;;;;;12.55;100.00;98280.56;5017960;28;19917;-43
2022/09/30 05:48:42;;;;;;;;;;;;;;;12.42;100.00;98292.44;5049331;28;19916;-43
2022/09/30 05:51:08;;;;;;;;;;;;;;;12.34;100.00;98292.00;5049677;28;19921;-43
2022/09/30 05:53:34;;;;;;;;;;;;;;;12.07;100.00;98304.53;5050290;28;19923;-43
2022/09/30 05:55:59;;;;;;;;;;;;;;;11.91;100.00;98301.88;5050477;28;19916;-43
2022/09/30 05:58:24;;;;;;;;;;;;;;;12.38;100.00;98293.50;5049718;28;19970;-43
2022/09/30 06:00:50;;;;;;;;;;;;;;;12.51;100.00;98294.53;5049352;28;20062;-43
2022/09/30 06:03:15;;;;;;;;;;;;;;;12.22;100.00;98306.34;5049315;28;19916;-43
2022/09/30 06:05:40;;;;;;;;;;;;;;;12.67;100.00;98309.25;5032387;28;19947;-43
2022/09/30 06:08:06;;;;;;;;;;;;;;;12.90;100.00;98306.31;5049425;28;19921;-43
2022/09/30 06:10:31;;;;;;;;;;;;;;;13.06;100.00;98310.66;5049000;28;19917;-43
2022/09/30 06:12:58;;;;;;;;;;;;;;;13.06;100.00;98305.50;5050697;28;20464;-43
2022/09/30 06:15:23;;;;;;;;;;;;;;;13.08;100.00;98320.00;5048846;28;19925;-43
2022/09/30 06:17:51;;;;;;;;;;;;;;;13.02;100.00;98322.09;5049835;28;19931;-43
2022/09/30 06:20:16;;;;;;;;;;;;;;;13.19;100.00;98316.84;5048389;28;19943;-43
2022/09/30 06:22:42;;;;;;;;;;;;;;;13.35;100.00;98317.72;5048700;28;19924;-43
2022/09/30 06:25:08;;;;;;;;;;;;;;;13.43;100.00;98322.47;5051374;28;19939;-43
2022/09/30 06:27:33;;;;;;;;;;;;;;;13.32;100.00;98325.66;5049887;28;20628;-43
2022/09/30 06:29:59;;;;;;;;;;;;;;;13.26;100.00;98323.38;5050414;28;20011;-43
2022/09/30 06:32:25;;;;;;;;;;;;;;;13.43;100.00;98329.41;5047920;28;19920;-43
2022/09/30 06:34:50;;;;;;;;;;;;;;;13.34;100.00;98331.59;5048362;28;20008;-43
2022/09/30 06:37:17;;;;;;;;;;;;;;;13.70;100.00;98333.06;5027672;28;19947;-43
2022/09/30 06:39:42;;;;;;;;;;;;;;;13.77;100.00;98339.56;5047121;28;19971;-44
2022/09/30 06:42:07;;;;;;;;;;;;;;;13.85;100.00;98348.69;5047581;28;20840;-44
2022/09/30 06:44:33;;;;;;;;;;;;;;;13.95;100.00;98336.88;5049001;28;19920;-44
2022/09/30 06:46:59;;;;;;;;;;;;;;;13.94;100.00;98346.41;5048368;28;19916;-44
2022/09/30 06:49:25;;;;;;;;;;;;;;;13.99;100.00;98328.84;5046488;28;20384;-43
2022/09/30 06:51:50;;;;;;;;;;;;;;;13.68;100.00;98345.25;5030825;28;19954;-44
2022/09/30 06:54:15;;;;;;;;;;;;;;;14.14;100.00;98347.88;5052375;28;19955;-44
2022/09/30 06:56:41;;;;;;;;;;;;;;;14.25;100.00;98344.63;5051333;28;19920;-44
2022/09/30 06:59:07;;;;;;;;;;;;;;;14.11;100.00;98353.19;5051630;28;19921;-44
2022/09/30 07:01:32;;;;;;;;;;;;;;;13.88;100.00;98357.09;5036023;28;19918;-43
2022/09/30 07:03:57;;;;;;;;;;;;;;;13.96;100.00;98354.09;5052722;28;20012;-44
2022/09/30 07:06:23;;;;;;;;;;;;;;;14.12;100.00;98354.88;5052875;28;20444;-44
2022/09/30 07:08:48;;;;;;;;;;;;;;;14.43;100.00;98350.53;5052229;28;19924;-44
2022/09/30 07:11:14;;;;;;;;;;;;;;;14.57;100.00;98340.22;5053490;28;19920;-44
2022/09/30 07:13:41;;;;;;;;;;;;;;;14.06;100.00;98344.03;5034008;28;19963;-43
2022/09/30 07:16:07;;;;;;;;;;;;;;;14.23;100.00;98342.16;5035993;28;20429;-44
2022/09/30 07:18:32;;;;;;;;;;;;;;;14.04;100.00;98351.88;5050085;28;19924;-43
2022/09/30 07:20:58;;;;;;;;;;;;;;;14.43;100.00;98368.66;5051343;28;20850;-44
2022/09/30 07:23:25;;;;;;;;;;;;;;;13.95;100.00;98367.94;5054375;28;19925;-46
2022/09/30 07:25:50;;;;;;;;;;;;;;;14.32;100.00;98365.84;5053673;28;19987;-45
2022/09/30 07:28:15;;;;;;;;;;;;;;;14.41;100.00;98366.16;5049995;28;20393;-45
2022/09/30 07:30:42;;;;;;;;;;;;;;;14.93;100.00;98357.09;5049872;28;19921;-45
2022/09/30 07:33:07;;;;;;;;;;;;;;;14.69;100.00;98368.91;5033799;28;20612;-45
2022/09/30 07:35:32;;;;;;;;;;;;;;;14.79;100.00;98364.88;5051554;28;19929;-45
2022/09/30 07:37:58;;;;;;;;;;;;;;;15.08;100.00;98364.88;5049275;28;19931;-45
2022/09/30 07:40:27;;;;;;;;;;;;;;;15.14;100.00;98372.28;5049168;28;19924;-46
2022/09/30 07:42:53;;;;;;;;;;;;;;;15.06;100.00;98365.81;5050973;28;19925;-45
2022/09/30 07:45:18;;;;;;;;;;;;;;;14.52;100.00;98356.94;5050447;28;19938;-45
2022/09/30 07:47:43;;;;;;;;;;;;;;;14.75;100.00;98373.75;5051351;28;20814;-46
2022/09/30 07:50:09;;;;;;;;;;;;;;;15.12;100.00;98371.53;5029806;28;20755;-46
2022/09/30 07:52:34;;;;;;;;;;;;;;;15.37;100.00;98366.53;5050102;28;19923;-45
2022/09/30 07:55:00;;;;;;;;;;;;;;;15.18;100.00;98365.97;5052353;28;19920;-46
2022/09/30 07:57:25;;;;;;;;;;;;;;;15.05;100.00;98371.06;5051425;28;19916;-46
2022/09/30 07:59:50;;;;;;;;;;;;;;;15.87;100.00;98370.34;5051149;28;19955;-47
2022/09/30 08:02:16;;;;;;;;;;;;;;;15.50;100.00;98365.75;5051425;28;20007;-46
2022/09/30 08:04:41;;;;;;;;;;;;;;;15.89;100.00;98368.47;5049977;28;20380;-46
2022/09/30 08:07:07;;;;;;;;;;;;;;;16.26;100.00;98357.44;5052979;28;19928;-45
2022/09/30 08:09:33;;;;;;;;;;;;;;;16.28;100.00;98364.25;5051879;28;20145;-46
2022/09/30 08:11:59;;;;;;;;;;;;;;;16.40;100.00;98366.94;5049956;28;20338;-45
2022/09/30 08:14:24;;;;;;;;;;;;;;;16.05;100.00;98372.69;5033984;28;19973;-46
2022/09/30 08:16:50;;;;;;;;;;;;;;;16.97;100.00;98369.22;5052255;28;19916;-46
2022/09/30 08:19:19;;;;;;;;;;;;;;;17.15;100.00;98348.88;5054010;28;19920;-46
2022/09/30 08:21:45;;;;;;;;;;;;;;;17.53;100.00;98364.41;5034781;28;19973;-46
2022/09/30 08:24:10;;;;;;;;;;;;;;;17.01;100.00;98362.84;5051510;28;19928;-45
2022/09/30 08:26:36;;;;;;;;;;;;;;;17.09;100.00;98365.75;5023855;28;20372;-47
2022/09/30 08:29:01;;;;;;;;;;;;;;;17.12;100.00;98368.16;5052098;28;19917;-47
2022/09/30 08:31:26;;;;;;;;;;;;;;;17.92;100.00;98374.75;5052474;28;20499;-47
2022/09/30 08:33:52;;;;;;;;;;;;;;;17.97;100.00;98363.06;5052584;28;20019;-47
2022/09/30 08:36:19;;;;;;;;;;;;;;;17.95;100.00;98364.13;5053616;28;19916;-47
2022/09/30 08:38:44;;;;;;;;;;;;;;;18.14;100.00;98368.81;5050754;28;19920;-47
2022/09/30 08:41:15;;;;;;;;;;;;;;;18.30;100.00;98373.72;5051736;28;20023;-49
2022/09/30 08:43:43;;;;;;;;;;;;;;;18.90;100.00;98362.25;5053289;28;19931;-47
2022/09/30 08:46:17;;;;;;;;;;;;;;;18.89;100.00;98359.78;5051461;28;19927;-47
2022/09/30 08:48:45;;;;;;;;;;;;;;;19.42;100.00;98367.84;5033855;28;20597;-48
2022/09/30 08:51:14;;;;;;;;;;;;;;;18.75;100.00;98369.47;5050938;28;19920;-47
2022/09/30 08:53:40;;;;;;;;;;;;;;;19.29;100.00;98372.38;5052623;28;20012;-48
2022/09/30 08:56:05;;;;;;;;;;;;;;;19.36;100.00;98363.94;5033814;28;19956;-47
2022/09/30 08:58:32;;;;;;;;;;;;;;;20.03;100.00;98362.97;5031704;28;19921;-50
2022/09/30 09:01:00;;;;;;;;;;;;;;;19.96;100.00;98361.81;5034465;28;19930;-47
2022/09/30 09:03:27;;;;;;;;;;;;;;;19.78;100.00;98368.53;5029854;28;20024;-48
2022/09/30 09:05:55;;;;;;;;;;;;;;;19.96;100.00;98366.22;5051162;28;20706;-47
2022/09/30 09:08:20;;;;;;;;;;;;;;;20.43;99.36;98364.94;5051993;28;19916;-48
2022/09/30 09:10:49;;;;;;;;;;;;;;;20.50;98.73;98359.19;5052518;28;19926;-47
2022/09/30 09:13:17;;;;;;;;;;;;;;;20.05;97.70;98357.63;5035217;28;20623;-48
2022/09/30 09:15:42;;;;;;;;;;;;;;;20.88;97.58;98350.78;5051652;28;19917;-47
2022/09/30 09:18:26;;;;;;;;;;;;;;;20.96;95.42;98344.88;5051772;28;19924;-47
2022/09/30 09:20:55;;;;;;;;;;;;;;;21.13;96.10;98349.50;5051424;28;19949;-48
2022/09/30 09:23:20;;;;;;;;;;;;;;;20.91;96.69;98362.78;5050954;28;19928;-48
2022/09/30 09:25:49;;;;;;;;;;;;;;;20.90;95.56;98359.34;5052584;28;20527;-47
2022/09/30 09:28:34;;;;;;;;;;;;;;;20.52;94.72;98352.06;5034187;28;19916;-47
2022/09/30 09:31:00;;;;;;;;;;;;;;;20.68;94.99;98352.47;5034207;28;19916;-47
2022/09/30 09:33:28;;;;;;;;;;;;;;;21.22;92.65;98346.09;5051742;28;19927;-49
2022/09/30 09:36:02;;;;;;;;;;;;;;;21.33;93.50;98358.28;5051401;28;20369;-47
2022/09/30 09:38:40;;;;;;;;;;;;;;;21.20;92.12;98358.50;5051243;28;19923;-47
2022/09/30 09:41:24;;;;;;;;;;;;;;;21.12;93.26;98355.72;5050621;28;19925;-47
2022/09/30 09:44:01;;;;;;;;;;;;;;;20.70;94.72;98361.00;5050980;28;19924;-48
2022/09/30 09:46:29;;;;;;;;;;;;;;;21.54;93.03;98358.22;5032877;28;19920;-47
2022/09/30 09:49:14;;;;;;;;;;;;;;;21.66;90.94;98351.91;5032349;28;20503;-48
2022/09/30 09:51:41;;;;;;;;;;;;;;;21.42;91.45;98356.69;5050530;28;19920;-48
2022/09/30 09:54:07;;;;;;;;;;;;;;;21.43;91.60;98355.72;5051066;28;19924;-46
2022/09/30 09:56:32;;;;;;;;;;;;;;;22.04;90.18;98347.66;5024214;28;19948;-44
2022/09/30 09:59:09;;;;;;;;;;;;;;;21.87;90.80;98350.94;5031630;28;20385;-47
2022/09/30 10:01:35;;;;;;;;;;;;;;;21.47;88.83;98344.00;5051011;28;19921;-46
2022/09/30 10:04:29;;;;;;;;;;;;;;;19.50;92.79;98360.25;5049105;28;19925;-47
2022/09/30 10:07:07;;;;;;;;;;;;;;;21.85;90.76;98343.25;5047549;28;20009;-47
2022/09/30 10:09:33;;;;;;;;;;;;;;;22.34;89.06;98340.63;5050569;28;20003;-51
2022/09/30 10:12:05;;;;;;;;;;;;;;;22.14;86.07;98345.84;5032708;28;19920;-49
2022/09/30 10:14:30;;;;;;;;;;;;;;;22.09;87.80;98340.22;5051323;28;19920;-49
2022/09/30 10:16:59;;;;;;;;;;;;;;;21.86;87.86;98344.06;5032811;28;19959;-47
2022/09/30 10:19:25;;;;;;;;;;;;;;;22.33;87.66;98346.88;5032922;28;20342;-46
2022/09/30 10:21:53;;;;;;;;;;;;;;;22.67;85.75;98343.75;5024179;28;19924;-45
2022/09/30 10:24:28;;;;;;;;;;;;;;;22.50;85.21;98340.88;5024543;28;20591;-46
2022/09/30 10:26:54;;;;;;;;;;;;;;;21.39;89.03;98356.91;5032904;28;19959;-48
2022/09/30 10:29:32;;;;;;;;;;;;;;;22.53;86.69;98352.91;5049605;28;20001;-46
2022/09/30 10:31:58;;;;;;;;;;;;;;;21.96;85.86;98350.13;5052084;28;19923;-47
2022/09/30 10:34:23;;;;;;;;;;;;;;;22.46;84.52;98350.00;5049933;28;20289;-48
2022/09/30 10:36:48;;;;;;;;;;;;;;;21.51;85.49;98355.88;5051389;28;19987;-47
2022/09/30 10:39:23;;;;;;;;;;;;;;;22.46;83.59;98346.56;5048651;28;19916;-47
2022/09/30 10:41:49;;;;;;;;;;;;;;;22.02;87.94;98360.09;5050579;28;20407;-47
2022/09/30 10:44:19;;;;;;;;;;;;;;;22.19;83.53;98347.25;5031936;28;19925;-47
2022/09/30 10:46:44;;;;;;;;;;;;;;;22.01;86.61;98355.81;5033004;28;19969;-48
2022/09/30 10:49:17;;;;;;;;;;;;;;;22.75;83.14;98346.50;5048795;28;19916;-49
2022/09/30 10:51:43;;;;;;;;;;;;;;;22.97;77.43;98335.66;5033806;28;19965;-47
2022/09/30 10:54:10;;;;;;;;;;;;;;;21.74;78.45;98339.94;5032480;28;19952;-47
2022/09/30 10:56:43;;;;;;;;;;;;;;;21.49;78.10;98342.09;5033107;28;20403;-47
2022/09/30 10:59:15;;;;;;;;;;;;;;;23.33;78.51;98335.81;5031700;28;20612;-47
2022/09/30 11:01:43;;;;;;;;;;;;;;;23.30;77.73;98338.72;5032856;28;20497;-49
2022/09/30 11:04:08;;;;;;;;;;;;;;;23.46;74.87;98330.19;5032272;28;19924;-47
2022/09/30 11:06:36;;;;;;;;;;;;;;;23.54;75.47;98332.91;5048903;28;19927;-48
2022/09/30 11:09:20;;;;;;;;;;;;;;;23.45;77.39;98335.63;5027629;28;19916;-48
2022/09/30 11:11:50;;;;;;;;;;;;;;;24.08;77.99;98332.97;5050324;28;19912;-48
2022/09/30 11:14:18;;;;;;;;;;;;;;;23.54;76.31;98330.28;5031226;28;19921;-47
2022/09/30 11:16:48;;;;;;;;;;;;;;;24.05;75.11;98333.28;5051197;28;20586;-49
2022/09/30 11:19:19;;;;;;;;;;;;;;;23.85;74.00;98329.13;5029540;28;20015;-47
2022/09/30 11:21:56;;;;;;;;;;;;;;;23.23;77.50;98342.91;5050482;28;19938;-49
2022/09/30 11:24:27;;;;;;;;;;;;;;;23.44;78.35;98341.81;5049006;28;19925;-47
2022/09/30 11:26:52;;;;;;;;;;;;;;;24.53;73.65;98329.41;5050061;28;19917;-48
2022/09/30 11:29:17;;;;;;;;;;;;;;;24.81;75.05;98337.13;5048882;28;19986;-47
2022/09/30 11:31:49;;;;;;;;;;;;;;;24.23;71.64;98337.72;5049547;28;20285;-47
2022/09/30 11:34:33;;;;;;;;;;;;;;;25.13;73.39;98330.38;5050090;28;19975;-47
2022/09/30 11:37:07;;;;;;;;;;;;;;;25.08;70.20;98324.75;5049220;28;19923;-47
2022/09/30 11:40:03;;;;;;;;;;;;;;;24.67;69.56;98329.81;5034360;28;19916;-46
2022/09/30 11:42:47;;;;;;;;;;;;;;;25.32;72.30;98330.16;5037194;28;19921;-48
2022/09/30 11:45:13;;;;;;;;;;;;;;;24.19;69.83;98332.72;5052679;28;19917;-48
2022/09/30 11:47:43;;;;;;;;;;;;;;;23.45;74.95;98346.13;5053569;28;19916;-49
2022/09/30 11:50:14;;;;;;;;;;;;;;;22.83;74.76;98338.75;5051385;28;19974;-47
2022/09/30 11:52:45;;;;;;;;;;;;;;;21.93;80.68;98350.41;5052714;28;19933;-47
2022/09/30 11:55:13;;;;;;;;;;;;;;;22.90;82.88;98355.59;5053837;28;20436;-47
2022/09/30 11:57:44;;;;;;;;;;;;;;;22.77;78.79;98349.81;5053825;28;19913;-47
2022/09/30 12:00:13;;;;;;;;;;;;;;;22.76;78.90;98349.00;5053120;28;20429;-47
2022/09/30 12:02:48;;;;;;;;;;;;;;;22.47;80.43;98353.47;5052175;28;19917;-48
2022/09/30 12:05:23;;;;;;;;;;;;;;;23.22;81.72;98357.03;5053471;28;20445;-49
2022/09/30 12:07:48;;;;;;;;;;;;;;;23.76;74.97;98342.19;5026451;28;19928;-47
2022/09/30 12:10:27;;;;;;;;;;;;;;;22.64;81.25;98355.38;5051864;28;19916;-48
2022/09/30 12:12:54;;;;;;;;;;;;;;;23.01;82.76;98359.03;5036491;28;19916;-47
2022/09/30 12:15:19;;;;;;;;;;;;;;;22.90;81.00;98355.59;5035674;28;19927;-48
2022/09/30 12:18:24;;;;;;;;;;;;;;;23.11;80.13;98354.56;5036100;28;19917;-47
2022/09/30 12:20:56;;;;;;;;;;;;;;;22.41;83.27;98352.22;4971498;28;19954;-48
2022/09/30 12:23:27;;;;;;;;;;;;;;;22.61;82.94;98352.22;4962902;28;20026;-47
2022/09/30 12:25:56;;;;;;;;;;;;;;;22.54;81.16;98355.38;5014687;28;19966;-47
2022/09/30 12:31:17;;;;;;;;;;;;;;;22.16;81.59;98361.47;5053472;28;19970;-50
2022/09/30 12:34:09;;;;;;;;;;;;;;;22.26;83.38;98361.47;5053248;28;19916;-48
2022/09/30 12:36:43;;;;;;;;;;;;;;;23.64;80.64;98347.81;5021787;28;19917;-48
2022/09/30 12:39:23;;;;;;;;;;;;;;;23.34;75.96;98329.56;5051535;28;19916;-47
2022/09/30 12:42:08;;;;;;;;;;;;;;;22.34;73.75;98322.28;5051179;28;19938;-48
2022/09/30 12:44:44;;;;;;;;;;;;;;;23.30;76.51;98332.63;5034236;28;19921;-47
2022/09/30 12:47:18;;;;;;;;;;;;;;;22.28;69.77;98312.34;5034755;28;19986;-48
2022/09/30 12:49:43;;;;;;;;;;;;;;;22.57;73.86;98319.34;5033991;28;19916;-47
2022/09/30 12:52:16;;;;;;;;;;;;;;;22.76;77.16;98330.63;5051361;28;19924;-48
2022/09/30 12:54:42;;;;;;;;;;;;;;;23.75;74.81;98323.97;5035330;28;20041;-47